createdAt,value
2023-10-11T00:01:24.214Z,15.61
2023-10-11T00:03:56.133Z,15.62
2023-10-11T00:06:27.455Z,15.63
2023-10-11T00:08:56.135Z,15.62
2023-10-11T00:11:29.407Z,15.63
2023-10-11T00:13:58.506Z,15.64
2023-10-11T00:16:29.050Z,15.65
2023-10-11T00:18:57.881Z,15.64
2023-10-11T00:21:41.914Z,15.65
2023-10-11T00:24:11.094Z,15.65
2023-10-11T00:26:42.454Z,15.65
2023-10-11T00:29:13.374Z,15.66
2023-10-11T00:31:42.557Z,15.68
2023-10-11T00:34:14.312Z,15.70
2023-10-11T00:36:46.889Z,15.70
2023-10-11T00:39:19.376Z,15.68
2023-10-11T00:41:50.867Z,15.64
2023-10-11T00:44:22.265Z,15.62
2023-10-11T00:46:57.429Z,15.60
2023-10-11T00:49:36.937Z,15.58
2023-10-11T00:52:08.444Z,15.56
2023-10-11T00:54:45.327Z,15.55
2023-10-11T00:57:17.252Z,15.55
2023-10-11T00:59:46.432Z,15.57
2023-10-11T01:02:16.174Z,15.60
2023-10-11T01:04:46.033Z,15.62
2023-10-11T01:07:15.148Z,15.63
2023-10-11T01:09:45.211Z,15.64
2023-10-11T01:12:15.251Z,15.63
2023-10-11T01:15:01.009Z,15.61
2023-10-11T01:17:33.393Z,15.59
2023-10-11T01:20:03.297Z,15.56
2023-10-11T01:22:32.609Z,15.54
2023-10-11T01:25:02.601Z,15.52
2023-10-11T01:27:34.433Z,15.50
2023-10-11T01:30:05.102Z,15.48
2023-10-11T01:32:36.333Z,15.46
2023-10-11T01:35:12.847Z,15.44
2023-10-11T01:37:45.571Z,15.41
2023-10-11T01:40:22.119Z,15.39
2023-10-11T01:42:53.899Z,15.37
2023-10-11T01:45:24.587Z,15.35
2023-10-11T01:47:58.277Z,15.34
2023-10-11T01:50:29.527Z,15.36
2023-10-11T01:52:58.109Z,15.35
2023-10-11T01:55:26.961Z,15.34
2023-10-11T01:57:55.729Z,15.34
2023-10-11T02:00:31.233Z,15.34
2023-10-11T02:03:00.231Z,15.33
2023-10-11T02:05:33.011Z,15.32
2023-10-11T02:08:05.842Z,15.30
2023-10-11T02:10:38.240Z,15.29
2023-10-11T02:13:11.173Z,15.28
2023-10-11T02:15:41.786Z,15.27
2023-10-11T02:18:12.117Z,15.25
2023-10-11T02:20:46.014Z,15.24
2023-10-11T02:23:15.356Z,15.24
2023-10-11T02:25:45.347Z,15.23
2023-10-11T02:28:16.424Z,15.22
2023-10-11T02:30:45.180Z,15.23
2023-10-11T02:33:13.745Z,15.22
2023-10-11T02:35:57.321Z,15.21
2023-10-11T02:38:27.341Z,15.20
2023-10-11T02:40:59.026Z,15.18
2023-10-11T02:43:28.170Z,15.13
2023-10-11T02:46:00.783Z,15.10
2023-10-11T02:48:29.649Z,15.09
2023-10-11T02:51:00.209Z,15.09
2023-10-11T02:53:30.344Z,15.07
2023-10-11T02:56:00.622Z,15.03
2023-10-11T02:58:31.711Z,14.97
2023-10-11T03:01:19.696Z,14.92
2023-10-11T03:03:56.010Z,14.90
2023-10-11T03:06:28.876Z,14.91
2023-10-11T03:08:57.660Z,14.92
2023-10-11T03:11:27.468Z,14.93
2023-10-11T03:13:56.628Z,14.93
2023-10-11T03:16:25.805Z,14.93
2023-10-11T03:18:54.897Z,14.92
2023-10-11T03:21:35.063Z,14.91
2023-10-11T03:24:07.490Z,14.89
2023-10-11T03:26:40.092Z,14.87
2023-10-11T03:29:19.868Z,14.83
2023-10-11T03:31:49.407Z,14.79
2023-10-11T03:34:21.215Z,14.77
2023-10-11T03:37:01.004Z,14.76
2023-10-11T03:39:38.781Z,14.72
2023-10-11T03:42:09.211Z,14.69
2023-10-11T03:44:41.702Z,14.67
2023-10-11T03:47:10.721Z,14.67
2023-10-11T03:49:42.414Z,14.65
2023-10-11T03:52:24.457Z,14.65
2023-10-11T03:54:56.316Z,14.65
2023-10-11T03:57:24.826Z,14.64
2023-10-11T03:59:54.014Z,14.62
2023-10-11T04:02:24.598Z,14.60
2023-10-11T04:04:53.182Z,14.58
2023-10-11T04:07:24.491Z,14.58
2023-10-11T04:09:53.339Z,14.57
2023-10-11T04:12:26.598Z,14.57
2023-10-11T04:14:59.310Z,14.55
2023-10-11T04:17:28.211Z,14.55
2023-10-11T04:20:18.646Z,14.56
2023-10-11T04:23:03.175Z,14.56
2023-10-11T04:25:34.237Z,14.54
2023-10-11T04:28:04.375Z,14.51
2023-10-11T04:30:46.019Z,14.50
2023-10-11T04:33:22.325Z,14.48
2023-10-11T04:35:57.864Z,14.47
2023-10-11T04:38:26.557Z,14.46
2023-10-11T04:40:55.517Z,14.43
2023-10-11T04:43:23.964Z,14.42
2023-10-11T04:46:01.624Z,14.42
2023-10-11T04:48:41.587Z,14.42
2023-10-11T04:51:30.929Z,14.41
2023-10-11T04:54:00.483Z,14.40
2023-10-11T04:56:42.011Z,14.43
2023-10-11T04:59:13.808Z,14.44
2023-10-11T05:02:00.488Z,14.43
2023-10-11T05:04:33.095Z,14.44
2023-10-11T05:07:11.544Z,14.44
2023-10-11T05:09:41.357Z,14.47
2023-10-11T05:12:14.500Z,14.50
2023-10-11T05:14:47.107Z,14.53
2023-10-11T05:17:17.197Z,14.58
2023-10-11T05:19:58.328Z,14.61
2023-10-11T05:22:29.935Z,14.63
2023-10-11T05:25:02.400Z,14.65
2023-10-11T05:27:35.616Z,14.65
2023-10-11T05:30:15.457Z,14.65
2023-10-11T05:32:56.306Z,14.69
2023-10-11T05:35:47.362Z,14.76
2023-10-11T05:38:39.445Z,14.80
2023-10-11T05:41:32.119Z,14.86
2023-10-11T05:44:20.475Z,14.95
2023-10-11T05:47:08.116Z,15.05
2023-10-11T05:49:56.129Z,15.12
2023-10-11T05:52:27.104Z,15.17
2023-10-11T05:54:57.362Z,15.24
2023-10-11T05:57:29.457Z,15.32
2023-10-11T06:00:08.459Z,15.42
2023-10-11T06:02:39.732Z,15.55
2023-10-11T06:05:15.908Z,15.71
2023-10-11T06:07:44.589Z,15.96
2023-10-11T06:10:19.447Z,16.18
2023-10-11T06:12:48.130Z,16.31
2023-10-11T06:15:20.234Z,16.40
2023-10-11T06:17:56.895Z,16.46
2023-10-11T06:20:29.008Z,16.46
2023-10-11T06:22:58.903Z,16.47
2023-10-11T06:25:48.000Z,16.49
2023-10-11T06:28:17.165Z,16.57
2023-10-11T06:30:49.870Z,16.77
2023-10-11T06:33:23.308Z,17.35
2023-10-11T06:35:52.057Z,18.19
2023-10-11T06:38:23.203Z,18.90
2023-10-11T06:40:59.857Z,19.24
2023-10-11T06:43:29.196Z,19.66
2023-10-11T06:46:03.474Z,20.14
2023-10-11T06:48:32.389Z,20.57
2023-10-11T06:51:02.471Z,20.92
2023-10-11T06:53:31.174Z,21.17
2023-10-11T06:56:00.502Z,21.38
2023-10-11T06:58:29.515Z,21.62
2023-10-11T07:00:59.014Z,21.88
2023-10-11T07:03:28.724Z,22.15
2023-10-11T07:06:11.778Z,22.35
2023-10-11T07:08:54.874Z,22.50
2023-10-11T07:11:52.063Z,22.54
2023-10-11T07:14:26.798Z,22.31
2023-10-11T07:16:55.937Z,21.88
2023-10-11T07:19:25.049Z,21.54
2023-10-11T07:21:53.643Z,21.36
2023-10-11T07:24:34.763Z,21.22
2023-10-11T07:27:14.279Z,21.07
2023-10-11T07:29:51.138Z,20.85
2023-10-11T07:32:21.046Z,20.62
2023-10-11T07:34:50.508Z,20.46
2023-10-11T07:37:28.182Z,20.35
2023-10-11T07:40:02.148Z,20.24
2023-10-11T07:42:39.791Z,20.20
2023-10-11T07:45:17.043Z,20.29
2023-10-11T07:47:53.269Z,20.44
2023-10-11T07:50:24.578Z,20.60
2023-10-11T07:52:57.112Z,20.62
2023-10-11T07:55:27.921Z,20.57
2023-10-11T07:58:04.587Z,20.54
2023-10-11T08:00:33.850Z,20.57
2023-10-11T08:03:06.294Z,20.63
2023-10-11T08:05:38.506Z,20.66
2023-10-11T08:08:07.115Z,20.67
2023-10-11T08:10:35.636Z,20.70
2023-10-11T08:13:04.703Z,20.72
2023-10-11T08:15:33.473Z,20.72
2023-10-11T08:18:05.033Z,20.71
2023-10-11T08:20:35.517Z,20.71
2023-10-11T08:23:09.822Z,20.72
2023-10-11T08:25:41.332Z,20.70
2023-10-11T08:28:14.505Z,20.65
2023-10-11T08:30:47.878Z,20.59
2023-10-11T08:33:16.661Z,20.57
2023-10-11T08:35:47.818Z,20.61
2023-10-11T08:38:19.713Z,20.68
2023-10-11T08:40:52.387Z,20.86
2023-10-11T08:43:23.099Z,21.11
2023-10-11T08:46:01.706Z,21.37
2023-10-11T08:48:31.169Z,21.51
2023-10-11T08:51:03.882Z,21.55
2023-10-11T08:53:32.809Z,21.64
2023-10-11T08:56:01.648Z,21.91
2023-10-11T08:58:30.731Z,22.28
2023-10-11T09:01:01.981Z,22.54
2023-10-11T09:03:34.254Z,22.55
2023-10-11T09:06:04.122Z,22.48
2023-10-11T09:08:34.879Z,22.45
2023-10-11T09:11:17.473Z,22.34
2023-10-11T09:13:46.227Z,22.41
2023-10-11T09:16:38.268Z,22.68
2023-10-11T09:19:10.971Z,22.98
2023-10-11T09:21:40.758Z,23.24
2023-10-11T09:24:29.340Z,23.29
2023-10-11T09:27:17.082Z,23.25
2023-10-11T09:29:49.484Z,23.11
2023-10-11T09:32:28.998Z,22.87
2023-10-11T09:34:58.501Z,22.64
2023-10-11T09:37:31.090Z,22.52
2023-10-11T09:40:10.161Z,22.41
2023-10-11T09:42:44.680Z,22.24
2023-10-11T09:45:18.709Z,22.17
2023-10-11T09:47:47.475Z,22.06
2023-10-11T09:50:17.407Z,21.96
2023-10-11T09:52:48.796Z,21.83
2023-10-11T09:55:21.581Z,21.68
2023-10-11T09:58:09.950Z,21.55
2023-10-11T10:00:56.502Z,21.45
2023-10-11T10:03:26.812Z,21.30
2023-10-11T10:06:12.050Z,21.18
2023-10-11T10:08:41.727Z,21.09
2023-10-11T10:11:13.853Z,21.02
2023-10-11T10:14:26.683Z,21.02
2023-10-11T10:17:14.650Z,21.13
2023-10-11T10:19:45.615Z,21.27
2023-10-11T10:22:21.448Z,21.33
2023-10-11T10:24:56.287Z,21.39
2023-10-11T10:27:35.040Z,21.46
2023-10-11T10:30:09.095Z,21.53
2023-10-11T10:32:40.150Z,21.57
2023-10-11T10:35:20.929Z,21.60
2023-10-11T10:37:57.133Z,21.65
2023-10-11T10:40:28.150Z,21.67
2023-10-11T10:43:22.195Z,21.67
2023-10-11T10:45:52.850Z,21.72
2023-10-11T10:48:25.258Z,21.74
2023-10-11T10:51:07.499Z,21.76
2023-10-11T10:54:05.793Z,21.79
2023-10-11T10:56:34.584Z,21.87
2023-10-11T10:59:13.768Z,21.92
2023-10-11T11:01:48.087Z,21.98
2023-10-11T11:04:22.507Z,22.05
2023-10-11T11:06:54.414Z,22.09
2023-10-11T11:09:30.606Z,22.19
2023-10-11T11:12:21.808Z,22.24
2023-10-11T11:15:10.681Z,22.23
2023-10-11T11:17:48.886Z,22.14
2023-10-11T11:20:40.751Z,22.02
2023-10-11T11:23:23.620Z,21.98
2023-10-11T11:25:55.546Z,21.97
2023-10-11T11:28:27.638Z,21.91
2023-10-11T11:30:58.946Z,21.84
2023-10-11T11:33:36.638Z,21.80
2023-10-11T11:36:15.921Z,21.75
2023-10-11T11:38:52.005Z,21.72
2023-10-11T11:41:27.967Z,21.66
2023-10-11T11:43:57.940Z,21.61
2023-10-11T11:46:30.855Z,21.55
2023-10-11T11:49:01.658Z,21.53
2023-10-11T11:51:30.685Z,21.55
2023-10-11T11:53:59.465Z,21.57
2023-10-11T11:56:30.289Z,21.63
2023-10-11T11:59:01.865Z,21.67
2023-10-11T12:01:31.049Z,21.70
2023-10-11T12:04:00.842Z,21.75
2023-10-11T12:06:36.972Z,21.82
2023-10-11T12:09:06.605Z,21.87
2023-10-11T12:11:37.656Z,21.90
2023-10-11T12:14:12.134Z,21.93
2023-10-11T12:16:44.543Z,21.97
2023-10-11T12:19:15.307Z,22.01
2023-10-11T12:21:44.462Z,22.03
2023-10-11T12:24:28.239Z,22.04
2023-10-11T12:27:02.125Z,22.07
2023-10-11T12:29:31.179Z,22.09
2023-10-11T12:32:02.992Z,22.09
2023-10-11T12:34:33.584Z,22.10
2023-10-11T12:37:03.867Z,22.09
2023-10-11T12:39:34.683Z,22.10
2023-10-11T12:42:03.418Z,22.11
2023-10-11T12:44:32.127Z,22.11
2023-10-11T12:47:00.829Z,22.11
2023-10-11T12:49:29.628Z,22.10
2023-10-11T12:51:58.190Z,22.09
2023-10-11T12:54:27.153Z,22.07
2023-10-11T12:56:55.898Z,22.04
2023-10-11T12:59:24.456Z,22.00
2023-10-11T13:01:59.148Z,21.96
2023-10-11T13:04:38.620Z,21.94
2023-10-11T13:07:15.388Z,21.92
2023-10-11T13:09:46.310Z,21.88
2023-10-11T13:12:19.720Z,21.84
2023-10-11T13:14:52.634Z,21.81
2023-10-11T13:17:21.492Z,21.80
2023-10-11T13:19:52.679Z,21.79
2023-10-11T13:22:21.639Z,21.78
2023-10-11T13:24:51.275Z,21.77
2023-10-11T13:27:23.629Z,21.74
2023-10-11T13:29:55.648Z,21.72
2023-10-11T13:32:24.502Z,21.70
2023-10-11T13:34:53.814Z,21.70
2023-10-11T13:37:23.793Z,21.70
2023-10-11T13:39:52.320Z,21.70
2023-10-11T13:42:20.905Z,21.69
2023-10-11T13:44:50.071Z,21.67
2023-10-11T13:47:18.672Z,21.67
2023-10-11T13:49:49.197Z,21.67
2023-10-11T13:52:20.997Z,21.67
2023-10-11T13:54:53.939Z,21.66
2023-10-11T13:57:25.384Z,21.67
2023-10-11T13:59:57.969Z,21.65
2023-10-11T14:02:33.277Z,21.62
2023-10-11T14:05:05.788Z,21.59
2023-10-11T14:07:38.545Z,21.57
2023-10-11T14:10:18.349Z,21.56
2023-10-11T14:12:47.523Z,21.55
2023-10-11T14:15:19.807Z,21.53
2023-10-11T14:17:50.983Z,21.52
2023-10-11T14:20:26.633Z,21.51
2023-10-11T14:22:59.519Z,21.48
2023-10-11T14:25:28.277Z,21.44
2023-10-11T14:27:56.935Z,21.41
2023-10-11T14:30:26.089Z,21.39
2023-10-11T14:32:54.919Z,21.37
2023-10-11T14:35:26.121Z,21.36
2023-10-11T14:37:55.209Z,21.34
2023-10-11T14:40:26.144Z,21.31
2023-10-11T14:42:54.717Z,21.28
2023-10-11T14:45:23.776Z,21.24
2023-10-11T14:47:54.452Z,21.19
2023-10-11T14:50:27.421Z,21.15
2023-10-11T14:52:56.534Z,21.11
2023-10-11T14:55:25.984Z,21.08
2023-10-11T14:57:55.504Z,21.04
2023-10-11T15:00:26.544Z,21.00
2023-10-11T15:02:59.356Z,20.96
2023-10-11T15:05:38.131Z,20.91
2023-10-11T15:08:07.167Z,20.85
2023-10-11T15:10:37.019Z,20.79
2023-10-11T15:13:06.958Z,20.73
2023-10-11T15:15:36.009Z,20.68
2023-10-11T15:18:05.708Z,20.64
2023-10-11T15:20:34.881Z,20.59
2023-10-11T15:23:03.488Z,20.55
2023-10-11T15:25:33.228Z,20.53
2023-10-11T15:28:01.987Z,20.50
2023-10-11T15:30:30.899Z,20.47
2023-10-11T15:32:59.901Z,20.45
2023-10-11T15:35:28.656Z,20.44
2023-10-11T15:37:57.203Z,20.42
2023-10-11T15:40:28.539Z,20.39
2023-10-11T15:43:01.468Z,20.35
2023-10-11T15:45:33.420Z,20.31
2023-10-11T15:48:03.505Z,20.26
2023-10-11T15:50:33.045Z,20.20
2023-10-11T15:53:02.190Z,20.14
2023-10-11T15:55:30.886Z,20.07
2023-10-11T15:57:59.639Z,20.02
2023-10-11T16:00:33.016Z,19.98
2023-10-11T16:03:06.762Z,19.94
2023-10-11T16:05:35.999Z,19.91
2023-10-11T16:08:07.949Z,19.87
2023-10-11T16:10:36.770Z,19.83
2023-10-11T16:13:05.494Z,19.78
2023-10-11T16:15:34.393Z,19.75
2023-10-11T16:18:04.631Z,19.70
2023-10-11T16:20:33.559Z,19.65
2023-10-11T16:23:02.500Z,19.61
2023-10-11T16:25:38.258Z,19.57
2023-10-11T16:28:11.177Z,19.53
2023-10-11T16:30:41.041Z,19.51
2023-10-11T16:33:10.061Z,19.48
2023-10-11T16:35:39.469Z,19.46
2023-10-11T16:38:09.100Z,19.43
2023-10-11T16:40:37.765Z,19.41
2023-10-11T16:43:07.016Z,19.38
2023-10-11T16:45:39.602Z,19.36
2023-10-11T16:48:20.259Z,19.35
2023-10-11T16:50:50.474Z,19.35
2023-10-11T16:53:19.073Z,19.35
2023-10-11T16:55:47.861Z,19.34
2023-10-11T16:58:16.978Z,19.35
2023-10-11T17:00:46.240Z,19.34
2023-10-11T17:03:15.460Z,19.35
2023-10-11T17:06:03.567Z,19.34
2023-10-11T17:08:44.593Z,19.31
2023-10-11T17:11:31.597Z,19.28
2023-10-11T17:14:25.966Z,19.26
2023-10-11T17:17:04.642Z,19.26
2023-10-11T17:19:38.357Z,19.27
2023-10-11T17:22:12.724Z,19.26
2023-10-11T17:24:56.506Z,19.22
2023-10-11T17:27:33.408Z,19.19
2023-10-11T17:30:08.338Z,19.15
2023-10-11T17:32:47.374Z,19.11
2023-10-11T17:35:25.873Z,19.08
2023-10-11T17:37:59.764Z,19.04
2023-10-11T17:40:33.264Z,19.00
2023-10-11T17:43:04.951Z,18.97
2023-10-11T17:45:45.017Z,18.95
2023-10-11T17:48:15.693Z,18.93
2023-10-11T17:50:44.887Z,18.90
2023-10-11T17:53:14.471Z,18.86
2023-10-11T17:55:44.039Z,18.83
2023-10-11T17:58:12.717Z,18.81
2023-10-11T18:00:41.286Z,18.80
2023-10-11T18:03:11.048Z,18.80
2023-10-11T18:05:40.731Z,18.80
2023-10-11T18:08:09.302Z,18.81
2023-10-11T18:10:39.471Z,18.82
2023-10-11T18:13:08.618Z,18.82
2023-10-11T18:15:39.191Z,18.81
2023-10-11T18:18:10.242Z,18.81
2023-10-11T18:20:39.614Z,18.81
2023-10-11T18:23:22.514Z,18.80
2023-10-11T18:25:53.410Z,18.78
2023-10-11T18:28:22.103Z,18.79
2023-10-11T18:30:51.414Z,18.78
2023-10-11T18:33:22.523Z,18.78
2023-10-11T18:35:51.130Z,18.78
2023-10-11T18:38:19.643Z,18.79
2023-10-11T18:40:49.933Z,18.81
2023-10-11T18:43:18.886Z,18.82
2023-10-11T18:45:47.488Z,18.83
2023-10-11T18:48:16.623Z,18.82
2023-10-11T18:50:46.530Z,18.82
2023-10-11T18:53:15.040Z,18.82
2023-10-11T18:55:44.718Z,18.84
2023-10-11T18:58:13.661Z,18.85
2023-10-11T19:00:42.545Z,18.88
2023-10-11T19:03:11.936Z,18.90
2023-10-11T19:05:43.027Z,18.91
2023-10-11T19:08:15.096Z,18.92
2023-10-11T19:10:44.065Z,18.91
2023-10-11T19:13:17.142Z,18.91
2023-10-11T19:15:46.026Z,18.89
2023-10-11T19:18:18.424Z,18.87
2023-10-11T19:20:47.760Z,18.85
2023-10-11T19:23:18.672Z,18.85
2023-10-11T19:26:00.079Z,18.84
2023-10-11T19:28:31.866Z,18.84
2023-10-11T19:31:01.383Z,18.85
2023-10-11T19:33:31.248Z,18.85
2023-10-11T19:36:14.411Z,18.84
2023-10-11T19:38:43.053Z,18.82
2023-10-11T19:41:12.751Z,18.80
2023-10-11T19:43:41.791Z,18.80
2023-10-11T19:46:14.915Z,18.80
2023-10-11T19:48:44.698Z,18.81
2023-10-11T19:51:15.746Z,18.81
2023-10-11T19:53:44.625Z,18.80
2023-10-11T19:56:15.570Z,18.80
2023-10-11T19:58:47.192Z,18.80
2023-10-11T20:01:24.686Z,18.79
2023-10-11T20:03:54.883Z,18.79
2023-10-11T20:06:24.333Z,18.79
2023-10-11T20:08:55.143Z,18.79
2023-10-11T20:11:24.848Z,18.79
2023-10-11T20:13:54.425Z,18.79
2023-10-11T20:16:23.222Z,18.79
2023-10-11T20:18:52.187Z,18.77
2023-10-11T20:21:21.832Z,18.75
2023-10-11T20:23:56.095Z,18.73
2023-10-11T20:26:26.219Z,18.70
2023-10-11T20:28:58.674Z,18.67
2023-10-11T20:31:27.584Z,18.62
2023-10-11T20:33:58.605Z,18.58
2023-10-11T20:36:27.679Z,18.54
2023-10-11T20:38:56.912Z,18.50
2023-10-11T20:41:25.564Z,18.48
2023-10-11T20:43:55.247Z,18.46
2023-10-11T20:46:24.766Z,18.45
2023-10-11T20:48:56.641Z,18.43
2023-10-11T20:51:26.405Z,18.41
2023-10-11T20:53:57.190Z,18.38
2023-10-11T20:56:29.595Z,18.35
2023-10-11T20:59:07.745Z,18.32
2023-10-11T21:01:38.183Z,18.28
2023-10-11T21:04:07.643Z,18.24
2023-10-11T21:06:36.427Z,18.23
2023-10-11T21:09:06.133Z,18.23
2023-10-11T21:11:35.198Z,18.27
2023-10-11T21:14:04.513Z,18.32
2023-10-11T21:16:35.616Z,18.37
2023-10-11T21:19:04.678Z,18.40
2023-10-11T21:21:34.105Z,18.43
2023-10-11T21:24:02.825Z,18.46
2023-10-11T21:26:32.425Z,18.49
2023-10-11T21:29:02.212Z,18.53
2023-10-11T21:31:33.612Z,18.55
2023-10-11T21:34:02.789Z,18.54
2023-10-11T21:36:31.360Z,18.53
2023-10-11T21:39:00.255Z,18.52
2023-10-11T21:41:29.286Z,18.51
2023-10-11T21:43:57.777Z,18.51
2023-10-11T21:46:26.733Z,18.51
2023-10-11T21:48:55.840Z,18.50
2023-10-11T21:51:26.069Z,18.49
2023-10-11T21:53:55.953Z,18.49
2023-10-11T21:56:27.202Z,18.50
2023-10-11T21:58:55.698Z,18.48
2023-10-11T22:01:25.769Z,18.48
2023-10-11T22:03:56.930Z,18.48
2023-10-11T22:06:26.634Z,18.47
2023-10-11T22:08:56.854Z,18.44
2023-10-11T22:11:28.748Z,18.41
2023-10-11T22:14:01.167Z,18.36
2023-10-11T22:16:30.469Z,18.33
2023-10-11T22:19:00.469Z,18.30
2023-10-11T22:21:29.104Z,18.28
2023-10-11T22:23:58.464Z,18.27
2023-10-11T22:26:27.888Z,18.24
2023-10-11T22:28:56.534Z,18.23
2023-10-11T22:31:26.034Z,18.21
2023-10-11T22:33:56.227Z,18.17
2023-10-11T22:36:30.656Z,18.12
2023-10-11T22:39:01.980Z,18.09
2023-10-11T22:41:31.310Z,18.05
2023-10-11T22:44:00.173Z,18.02
2023-10-11T22:46:28.896Z,17.99
2023-10-11T22:48:57.899Z,17.95
2023-10-11T22:51:29.029Z,17.94
2023-10-11T22:54:02.038Z,17.95
2023-10-11T22:56:32.156Z,17.95
2023-10-11T22:59:06.064Z,17.96
2023-10-11T23:01:38.646Z,17.94
2023-10-11T23:04:09.217Z,17.91
2023-10-11T23:06:38.686Z,17.89
2023-10-11T23:09:07.567Z,17.86
2023-10-11T23:11:44.243Z,17.86
2023-10-11T23:14:13.274Z,17.88
2023-10-11T23:16:42.073Z,17.90
2023-10-11T23:19:20.799Z,17.90
2023-10-11T23:21:54.503Z,17.91
2023-10-11T23:24:42.507Z,17.92
2023-10-11T23:27:12.859Z,17.92
2023-10-11T23:29:41.484Z,17.92
2023-10-11T23:32:13.793Z,17.91
2023-10-11T23:34:43.115Z,17.88
2023-10-11T23:37:16.560Z,17.86
2023-10-11T23:40:05.615Z,17.85
2023-10-11T23:42:36.194Z,17.85
2023-10-11T23:45:17.149Z,17.86
2023-10-11T23:47:49.456Z,17.88
2023-10-11T23:50:22.411Z,17.90
2023-10-11T23:53:16.611Z,17.90
2023-10-11T23:55:45.581Z,17.90
2023-10-11T23:58:22.746Z,17.90
